Campbell AAF (Fort Campbell) Air Field Fort Campbell, Hopkinsville US
ICAO: KHOP
IATA: HOP
Category: Medium
Scheduled Services: No

Elevation: 573 ft
TransAlt. 18000 ft.

Airport Communications:
APP:118.1
ATIS:125.175
CLNC DEL:138.8
DEP:118.1
GND:121.8
PMSV METRO:34.33
EAGLE CON:65.2
PTD:130.65
TWR:120.9

KHOP Zoom In..

Runways:

(A) RW 05 length 11822 ft width 200 ft
---- / hdg 45

(B) RW 18 length 4001 ft width 155 ft
---- / hdg 180

(C) RW 23 length 11822 ft width 200 ft
ILS 111.90 / hdg 225

(D) RW 36 length 4001 ft width 155 ft
---- / hdg 360

Location; KHOP
Day. 30 / Time. 22.35 Zulu
* Altimeter: 30.00
* Temperature: 01° c. 33.8°f.
* Wind from: 290° Speed 13 kn.
Dewpoint: -02° c.
Visibility: 10 Statute Miles.
Clouds: Few 2900 ft.
Clouds: Overcast 3800 ft.

KHOP 302235Z 29013KT 10SM FEW029 OVC038 01/M02 A3000 RMK AO2A SNE2159RAB2159E02SNB02E35 SLP165 $

Going to: --> -->


Wind From 290°
Speed 13 kn.

 
 
jpsmedia worldairports.se 2020   terms of use